createdAt,value
2023-08-19T00:00:09.809Z,19.60
2023-08-19T00:02:45.989Z,19.60
2023-08-19T00:05:14.787Z,19.50
2023-08-19T00:07:44.444Z,19.50
2023-08-19T00:10:13.152Z,19.50
2023-08-19T00:12:41.709Z,19.50
2023-08-19T00:15:11.015Z,19.60
2023-08-19T00:17:39.598Z,19.60
2023-08-19T00:20:12.106Z,19.60
2023-08-19T00:22:40.986Z,19.50
2023-08-19T00:25:10.668Z,19.50
2023-08-19T00:27:39.307Z,19.50
2023-08-19T00:30:09.274Z,19.50
2023-08-19T00:32:37.961Z,19.50
2023-08-19T00:35:07.460Z,19.60
2023-08-19T00:37:37.889Z,19.60
2023-08-19T00:40:07.489Z,19.60
2023-08-19T00:42:36.256Z,19.60
2023-08-19T00:45:05.608Z,19.50
2023-08-19T00:47:34.590Z,19.50
2023-08-19T00:50:05.373Z,19.50
2023-08-19T00:52:35.749Z,19.40
2023-08-19T00:55:07.705Z,19.30
2023-08-19T00:57:38.136Z,19.30
2023-08-19T01:00:08.349Z,19.20
2023-08-19T01:02:38.425Z,19.10
2023-08-19T01:05:07.920Z,19.10
2023-08-19T01:07:44.901Z,19.10
2023-08-19T01:10:22.323Z,19.00
2023-08-19T01:12:59.384Z,19.00
2023-08-19T01:15:32.032Z,18.90
2023-08-19T01:18:01.725Z,18.90
2023-08-19T01:20:33.116Z,18.90
2023-08-19T01:23:04.575Z,18.90
2023-08-19T01:25:35.141Z,19.00
2023-08-19T01:28:07.612Z,19.00
2023-08-19T01:30:36.532Z,19.00
2023-08-19T01:33:06.152Z,19.00
2023-08-19T01:35:40.727Z,19.00
2023-08-19T01:38:12.753Z,18.90
2023-08-19T01:40:44.389Z,18.90
2023-08-19T01:43:13.934Z,18.80
2023-08-19T01:45:43.140Z,18.80
2023-08-19T01:48:11.830Z,18.70
2023-08-19T01:50:41.209Z,18.70
2023-08-19T01:53:09.892Z,18.70
2023-08-19T01:55:38.500Z,18.70
2023-08-19T01:58:08.576Z,18.60
2023-08-19T02:00:37.284Z,18.70
2023-08-19T02:03:06.828Z,18.70
2023-08-19T02:05:35.522Z,18.70
2023-08-19T02:08:04.377Z,18.70
2023-08-19T02:10:34.018Z,18.80
2023-08-19T02:13:03.726Z,18.90
2023-08-19T02:15:33.955Z,18.90
2023-08-19T02:18:02.791Z,18.90
2023-08-19T02:20:31.797Z,18.90
2023-08-19T02:23:01.677Z,18.90
2023-08-19T02:25:30.522Z,19.00
2023-08-19T02:27:59.201Z,18.90
2023-08-19T02:30:27.999Z,18.90
2023-08-19T02:32:58.270Z,18.90
2023-08-19T02:35:27.629Z,18.90
2023-08-19T02:37:56.261Z,18.90
2023-08-19T02:40:25.553Z,19.00
2023-08-19T02:42:54.161Z,19.00
2023-08-19T02:45:23.181Z,18.90
2023-08-19T02:47:51.791Z,18.90
2023-08-19T02:50:21.895Z,18.90
2023-08-19T02:52:50.496Z,18.90
2023-08-19T02:55:19.249Z,19.00
2023-08-19T02:57:48.603Z,19.00
2023-08-19T03:00:17.612Z,19.00
2023-08-19T03:02:48.070Z,19.00
2023-08-19T03:05:18.058Z,19.00
2023-08-19T03:07:48.125Z,19.00
2023-08-19T03:10:16.780Z,19.00
2023-08-19T03:12:45.349Z,19.00
2023-08-19T03:15:14.029Z,19.00
2023-08-19T03:17:42.612Z,19.00
2023-08-19T03:20:12.471Z,19.00
2023-08-19T03:22:41.071Z,19.00
2023-08-19T03:25:12.773Z,19.00
2023-08-19T03:27:41.472Z,19.10
2023-08-19T03:30:11.591Z,19.00
2023-08-19T03:32:41.051Z,19.00
2023-08-19T03:35:10.290Z,19.00
2023-08-19T03:37:38.898Z,19.00
2023-08-19T03:40:08.382Z,19.00
2023-08-19T03:42:39.372Z,19.00
2023-08-19T03:45:09.104Z,19.00
2023-08-19T03:47:38.136Z,19.20
2023-08-19T03:50:08.758Z,19.10
2023-08-19T03:52:37.337Z,19.00
2023-08-19T03:55:06.682Z,19.00
2023-08-19T03:57:35.481Z,19.00
2023-08-19T04:00:07.778Z,19.00
2023-08-19T04:02:43.027Z,19.10
2023-08-19T04:05:13.996Z,19.10
2023-08-19T04:07:42.936Z,19.20
2023-08-19T04:10:11.844Z,19.20
2023-08-19T04:12:40.706Z,19.50
2023-08-19T04:15:12.383Z,19.60
2023-08-19T04:17:41.133Z,19.80
2023-08-19T04:20:10.974Z,19.90
2023-08-19T04:22:39.802Z,20.20
2023-08-19T04:25:09.452Z,20.40
2023-08-19T04:27:38.058Z,20.60
2023-08-19T04:30:08.026Z,20.90
2023-08-19T04:32:38.111Z,21.10
2023-08-19T04:35:08.086Z,21.40
2023-08-19T04:37:36.784Z,21.60
2023-08-19T04:40:10.443Z,21.70
2023-08-19T04:42:42.242Z,22.00
2023-08-19T04:45:12.080Z,22.20
2023-08-19T04:47:47.980Z,22.30
2023-08-19T04:50:17.299Z,22.70
2023-08-19T04:52:45.886Z,23.00
2023-08-19T04:55:16.517Z,23.20
2023-08-19T04:57:45.134Z,23.40
2023-08-19T05:00:15.237Z,23.80
2023-08-19T05:02:44.060Z,23.80
2023-08-19T05:05:14.961Z,24.20
2023-08-19T05:07:43.711Z,24.60
2023-08-19T05:10:12.390Z,25.00
2023-08-19T05:12:40.946Z,25.00
2023-08-19T05:15:11.615Z,25.10
2023-08-19T05:17:40.436Z,25.20
2023-08-19T05:20:10.299Z,25.30
2023-08-19T05:22:40.322Z,25.70
2023-08-19T05:25:10.017Z,26.00
2023-08-19T05:27:38.828Z,26.30
2023-08-19T05:30:08.735Z,26.60
2023-08-19T05:32:37.410Z,26.80
2023-08-19T05:35:06.950Z,27.00
2023-08-19T05:37:35.777Z,27.00
2023-08-19T05:40:07.166Z,27.00
2023-08-19T05:42:35.845Z,27.20
2023-08-19T05:45:04.618Z,27.10
2023-08-19T05:47:34.175Z,27.40
2023-08-19T05:50:03.081Z,27.30
2023-08-19T05:52:31.743Z,27.80
2023-08-19T05:55:02.547Z,27.80
2023-08-19T05:57:34.251Z,28.10
2023-08-19T06:00:03.080Z,28.40
2023-08-19T06:02:41.717Z,28.30
2023-08-19T06:05:11.196Z,28.50
2023-08-19T06:07:39.834Z,27.90
2023-08-19T06:10:09.013Z,28.30
2023-08-19T06:12:38.963Z,28.20
2023-08-19T06:15:08.424Z,28.00
2023-08-19T06:17:37.149Z,27.60
2023-08-19T06:20:06.915Z,27.80
2023-08-19T06:22:35.601Z,27.70
2023-08-19T06:25:05.046Z,27.50
2023-08-19T06:27:33.931Z,27.40
2023-08-19T06:30:04.363Z,27.30
2023-08-19T06:32:34.156Z,27.10
2023-08-19T06:35:03.679Z,27.10
2023-08-19T06:37:35.422Z,26.80
2023-08-19T06:40:08.835Z,26.80
2023-08-19T06:42:37.865Z,26.70
2023-08-19T06:45:11.302Z,26.60
2023-08-19T06:47:40.940Z,26.70
2023-08-19T06:50:11.107Z,26.60
2023-08-19T06:52:40.594Z,26.40
2023-08-19T06:55:10.722Z,26.50
2023-08-19T06:57:48.995Z,26.50
2023-08-19T07:00:21.083Z,26.50
2023-08-19T07:02:54.508Z,26.70
2023-08-19T07:05:26.128Z,26.60
2023-08-19T07:07:58.470Z,26.70
2023-08-19T07:10:27.732Z,26.50
2023-08-19T07:12:57.127Z,26.50
2023-08-19T07:15:28.057Z,26.50
2023-08-19T07:18:00.968Z,26.00
2023-08-19T07:20:29.831Z,26.20
2023-08-19T07:23:01.841Z,26.20
2023-08-19T07:25:30.929Z,26.30
2023-08-19T07:28:03.907Z,26.30
2023-08-19T07:30:34.732Z,26.10
2023-08-19T07:33:05.577Z,26.10
2023-08-19T07:35:35.346Z,26.00
2023-08-19T07:38:04.348Z,26.20
2023-08-19T07:40:33.019Z,26.40
2023-08-19T07:43:01.663Z,26.30
2023-08-19T07:45:30.296Z,26.40
2023-08-19T07:48:00.316Z,26.40
2023-08-19T07:50:29.132Z,26.30
2023-08-19T07:52:57.748Z,26.20
2023-08-19T07:55:26.377Z,26.30
2023-08-19T07:57:54.903Z,26.40
2023-08-19T08:00:23.831Z,26.40
2023-08-19T08:02:52.636Z,26.60
2023-08-19T08:05:22.761Z,26.70
2023-08-19T08:07:51.508Z,26.70
2023-08-19T08:10:20.104Z,26.90
2023-08-19T08:12:48.735Z,26.70
2023-08-19T08:15:17.389Z,26.90
2023-08-19T08:17:46.045Z,27.00
2023-08-19T08:20:15.193Z,26.70
2023-08-19T08:22:46.026Z,26.80
2023-08-19T08:25:14.805Z,27.00
2023-08-19T08:27:43.478Z,27.10
2023-08-19T08:30:12.771Z,27.00
2023-08-19T08:32:41.792Z,27.10
2023-08-19T08:35:10.635Z,27.20
2023-08-19T08:37:39.245Z,27.20
2023-08-19T08:40:10.451Z,27.30
2023-08-19T08:42:39.849Z,27.30
2023-08-19T08:45:10.034Z,27.10
2023-08-19T08:47:41.168Z,27.20
2023-08-19T08:50:11.103Z,27.20
2023-08-19T08:52:41.489Z,27.40
2023-08-19T08:55:12.294Z,27.30
2023-08-19T08:57:40.893Z,27.30
2023-08-19T09:00:13.139Z,27.30
2023-08-19T09:02:43.048Z,27.50
2023-08-19T09:05:13.820Z,27.70
2023-08-19T09:07:43.513Z,27.80
2023-08-19T09:10:15.566Z,27.80
2023-08-19T09:12:47.552Z,27.80
2023-08-19T09:15:18.267Z,27.80
2023-08-19T09:17:49.845Z,27.60
2023-08-19T09:20:20.290Z,27.40
2023-08-19T09:22:49.101Z,27.50
2023-08-19T09:25:19.221Z,27.70
2023-08-19T09:27:48.687Z,27.60
2023-08-19T09:30:19.188Z,27.80
2023-08-19T09:32:47.830Z,27.60
2023-08-19T09:35:16.545Z,27.50
2023-08-19T09:37:45.841Z,27.50
2023-08-19T09:43:05.118Z,28.00
2023-08-19T09:45:33.773Z,28.20
2023-08-19T09:48:03.327Z,28.30
2023-08-19T09:50:32.750Z,28.40
2023-08-19T09:53:02.599Z,28.60
2023-08-19T09:55:33.600Z,28.80
2023-08-19T09:58:02.608Z,28.70
2023-08-19T10:00:32.565Z,28.90
2023-08-19T10:03:01.353Z,29.00
2023-08-19T10:05:31.689Z,29.10
2023-08-19T10:08:02.821Z,29.00
2023-08-19T10:10:32.938Z,29.00
2023-08-19T10:13:03.474Z,29.10
2023-08-19T10:15:35.497Z,29.20
2023-08-19T10:18:11.046Z,29.40
2023-08-19T10:20:42.847Z,29.10
2023-08-19T10:23:12.803Z,29.10
2023-08-19T10:25:43.922Z,29.20
2023-08-19T10:28:14.059Z,29.30
2023-08-19T10:30:44.625Z,29.10
2023-08-19T10:33:37.509Z,29.00
2023-08-19T10:36:07.872Z,29.00
2023-08-19T10:38:47.462Z,29.10
2023-08-19T10:41:21.119Z,29.30
2023-08-19T10:43:55.071Z,29.40
2023-08-19T10:46:38.083Z,29.30
2023-08-19T10:49:08.616Z,29.50
2023-08-19T10:51:51.577Z,29.70
2023-08-19T10:54:31.657Z,29.70
2023-08-19T10:57:14.134Z,29.70
2023-08-19T10:59:44.147Z,29.80
2023-08-19T11:02:15.115Z,29.80
2023-08-19T11:04:44.955Z,29.80
2023-08-19T11:07:13.869Z,29.90
2023-08-19T11:09:43.926Z,29.80
2023-08-19T11:12:13.351Z,29.60
2023-08-19T11:14:46.711Z,29.90
2023-08-19T11:17:16.779Z,29.90
2023-08-19T11:19:45.649Z,30.00
2023-08-19T11:22:15.374Z,30.00
2023-08-19T11:24:44.403Z,30.10
2023-08-19T11:27:14.689Z,30.30
2023-08-19T11:29:47.162Z,30.30
2023-08-19T11:32:21.713Z,30.20
2023-08-19T11:34:50.506Z,30.30
2023-08-19T11:37:19.030Z,30.20
2023-08-19T11:39:47.858Z,30.30
2023-08-19T11:42:16.668Z,30.30
2023-08-19T11:44:45.506Z,30.50
2023-08-19T11:47:14.994Z,30.30
2023-08-19T11:49:46.118Z,30.30
2023-08-19T11:52:21.069Z,30.30
2023-08-19T11:55:00.770Z,30.20
2023-08-19T11:57:34.673Z,30.10
2023-08-19T12:00:06.250Z,30.40
2023-08-19T12:02:41.620Z,30.60
2023-08-19T12:05:12.155Z,30.50
2023-08-19T12:07:46.031Z,30.30
2023-08-19T12:10:15.328Z,30.20
2023-08-19T12:12:58.506Z,30.10
2023-08-19T12:15:27.288Z,30.10
2023-08-19T12:17:55.941Z,30.20
2023-08-19T12:20:25.876Z,30.40
2023-08-19T12:22:54.370Z,30.60
2023-08-19T12:25:23.393Z,30.60
2023-08-19T12:27:52.622Z,30.70
2023-08-19T12:30:21.263Z,30.80
2023-08-19T12:32:49.849Z,30.90
2023-08-19T12:35:18.852Z,31.00
2023-08-19T12:37:48.842Z,30.90
2023-08-19T12:40:17.392Z,31.00
2023-08-19T12:42:49.269Z,30.90
2023-08-19T12:45:18.308Z,31.00
2023-08-19T12:47:47.749Z,31.00
2023-08-19T12:50:17.305Z,31.00
2023-08-19T12:52:46.032Z,30.70
2023-08-19T12:55:16.321Z,30.60
2023-08-19T12:57:45.596Z,30.60
2023-08-19T13:00:15.429Z,30.50
2023-08-19T13:02:44.142Z,30.50
2023-08-19T13:05:13.405Z,30.50
2023-08-19T13:07:42.631Z,30.50
2023-08-19T13:10:12.322Z,30.50
2023-08-19T13:12:43.247Z,30.70
2023-08-19T13:15:14.286Z,30.70
2023-08-19T13:17:43.075Z,30.80
2023-08-19T13:20:12.647Z,30.60
2023-08-19T13:22:41.177Z,30.70
2023-08-19T13:25:10.405Z,30.80
2023-08-19T13:27:39.209Z,30.80
2023-08-19T13:30:10.591Z,30.60
2023-08-19T13:32:39.493Z,30.60
2023-08-19T13:35:08.758Z,30.50
2023-08-19T13:37:37.466Z,30.50
2023-08-19T13:40:07.331Z,30.60
2023-08-19T13:42:36.312Z,30.90
2023-08-19T13:45:08.438Z,31.00
2023-08-19T13:47:38.669Z,31.10
2023-08-19T13:50:09.200Z,31.00
2023-08-19T13:52:39.710Z,30.80
2023-08-19T13:55:09.882Z,31.00
2023-08-19T13:57:38.636Z,31.10
2023-08-19T14:00:12.050Z,31.10
2023-08-19T14:02:43.785Z,31.20
2023-08-19T14:05:14.848Z,31.10
2023-08-19T14:07:43.945Z,30.70
2023-08-19T14:10:13.037Z,30.50
2023-08-19T14:12:41.637Z,30.20
2023-08-19T14:15:10.837Z,30.10
2023-08-19T14:17:39.791Z,30.00
2023-08-19T14:20:12.746Z,30.00
2023-08-19T14:22:42.154Z,30.10
2023-08-19T14:25:12.349Z,30.30
2023-08-19T14:27:41.224Z,30.50
2023-08-19T14:30:10.807Z,30.30
2023-08-19T14:32:39.620Z,30.30
2023-08-19T14:35:09.975Z,30.10
2023-08-19T14:37:41.159Z,30.30
2023-08-19T14:40:12.819Z,30.30
2023-08-19T14:42:42.098Z,30.60
2023-08-19T14:45:10.947Z,30.70
2023-08-19T14:47:39.565Z,30.80
2023-08-19T14:50:10.599Z,30.90
2023-08-19T14:52:39.339Z,30.80
2023-08-19T14:55:11.585Z,30.80
2023-08-19T14:57:41.023Z,30.50
2023-08-19T15:00:12.374Z,30.60
2023-08-19T15:02:46.917Z,30.60
2023-08-19T15:05:17.343Z,30.60
2023-08-19T15:07:47.231Z,30.60
2023-08-19T15:10:15.842Z,30.70
2023-08-19T15:12:44.488Z,30.70
2023-08-19T15:15:18.588Z,30.80
2023-08-19T15:17:48.221Z,30.80
2023-08-19T15:20:18.706Z,30.70
2023-08-19T15:22:47.368Z,30.60
2023-08-19T15:25:15.984Z,30.70
2023-08-19T15:27:45.795Z,30.70
2023-08-19T15:30:15.400Z,30.70
2023-08-19T15:32:49.000Z,30.50
2023-08-19T15:35:19.929Z,30.50
2023-08-19T15:37:48.602Z,30.50
2023-08-19T15:40:17.207Z,30.60
2023-08-19T15:42:45.972Z,30.50
2023-08-19T15:45:14.553Z,30.60
2023-08-19T15:47:44.054Z,30.50
2023-08-19T15:50:13.150Z,30.30
2023-08-19T15:52:43.123Z,30.50
2023-08-19T15:55:12.131Z,30.60
2023-08-19T15:57:40.745Z,30.30
2023-08-19T16:00:12.907Z,30.10
2023-08-19T16:02:41.498Z,29.90
2023-08-19T16:05:10.967Z,29.90
2023-08-19T16:07:41.207Z,29.80
2023-08-19T16:10:12.449Z,29.70
2023-08-19T16:12:42.256Z,29.60
2023-08-19T16:15:12.079Z,29.80
2023-08-19T16:17:40.713Z,29.80
2023-08-19T16:20:10.279Z,29.90
2023-08-19T16:22:38.961Z,29.80
2023-08-19T16:25:08.881Z,29.80
2023-08-19T16:27:39.012Z,29.90
2023-08-19T16:30:09.020Z,29.80
2023-08-19T16:32:37.790Z,29.70
2023-08-19T16:35:07.399Z,29.50
2023-08-19T16:37:36.280Z,29.40
2023-08-19T16:40:05.879Z,29.30
2023-08-19T16:42:34.517Z,29.30
2023-08-19T16:45:04.930Z,29.30
2023-08-19T16:47:34.340Z,29.30
2023-08-19T16:50:03.173Z,29.40
2023-08-19T16:52:33.118Z,29.30
2023-08-19T16:55:02.700Z,29.30
2023-08-19T16:57:32.857Z,29.20
2023-08-19T17:00:01.738Z,29.00
2023-08-19T17:02:35.301Z,28.90
2023-08-19T17:05:05.730Z,28.90
2023-08-19T17:07:34.975Z,28.90
2023-08-19T17:10:03.800Z,28.80
2023-08-19T17:12:33.532Z,28.80
2023-08-19T17:15:02.314Z,28.70
2023-08-19T17:17:36.128Z,28.70
2023-08-19T17:20:07.654Z,28.70
2023-08-19T17:22:40.008Z,28.70
2023-08-19T17:25:11.468Z,28.70
2023-08-19T17:27:40.378Z,28.50
2023-08-19T17:30:10.074Z,28.50
2023-08-19T17:32:40.038Z,28.50
2023-08-19T17:35:10.432Z,28.50
2023-08-19T17:37:39.083Z,28.50
2023-08-19T17:40:11.044Z,28.40
2023-08-19T17:42:39.706Z,28.30
2023-08-19T17:45:09.689Z,28.20
2023-08-19T17:47:39.813Z,28.10
2023-08-19T17:50:09.429Z,28.10
2023-08-19T17:52:37.964Z,28.00
2023-08-19T17:55:07.423Z,28.00
2023-08-19T17:57:36.392Z,27.90
2023-08-19T18:00:06.304Z,27.90
2023-08-19T18:02:43.304Z,27.80
2023-08-19T18:05:11.956Z,27.70
2023-08-19T18:07:40.646Z,27.60
2023-08-19T18:10:10.026Z,27.50
2023-08-19T18:12:38.666Z,27.40
2023-08-19T18:15:08.712Z,27.30
2023-08-19T18:17:37.832Z,27.20
2023-08-19T18:20:09.861Z,27.20
2023-08-19T18:22:38.512Z,27.20
2023-08-19T18:25:08.076Z,27.10
2023-08-19T18:27:36.868Z,27.10
2023-08-19T18:30:06.540Z,27.10
2023-08-19T18:32:35.351Z,27.00
2023-08-19T18:35:04.425Z,27.00
2023-08-19T18:37:34.605Z,26.90
2023-08-19T18:40:05.715Z,26.90
2023-08-19T18:42:34.757Z,26.90
2023-08-19T18:45:04.159Z,26.80
2023-08-19T18:47:33.556Z,26.70
2023-08-19T18:50:05.358Z,26.80
2023-08-19T18:52:35.352Z,26.70
2023-08-19T18:55:05.137Z,26.60
2023-08-19T18:57:34.316Z,26.60
2023-08-19T19:00:04.233Z,26.60
2023-08-19T19:02:33.724Z,26.50
2023-08-19T19:05:04.331Z,26.50
2023-08-19T19:07:34.635Z,26.50
2023-08-19T19:10:03.616Z,26.50
2023-08-19T19:12:33.843Z,26.50
2023-08-19T19:15:04.096Z,26.50
2023-08-19T19:17:49.853Z,26.50
2023-08-19T19:20:18.981Z,26.40
2023-08-19T19:22:49.383Z,26.40
2023-08-19T19:25:29.667Z,26.30
2023-08-19T19:27:58.302Z,26.30
2023-08-19T19:30:27.049Z,26.20
2023-08-19T19:32:55.690Z,26.20
2023-08-19T19:35:24.357Z,26.20
2023-08-19T19:37:54.310Z,26.20
2023-08-19T19:40:36.003Z,26.20
2023-08-19T19:43:04.884Z,26.20
2023-08-19T19:45:33.685Z,26.10
2023-08-19T19:48:02.377Z,26.10
2023-08-19T19:50:32.234Z,26.00
2023-08-19T19:53:02.424Z,25.90
2023-08-19T19:55:31.065Z,25.90
2023-08-19T19:57:59.675Z,25.90
2023-08-19T20:00:29.962Z,25.80
2023-08-19T20:02:59.358Z,25.70
2023-08-19T20:05:28.535Z,25.60
2023-08-19T20:07:57.206Z,25.50
2023-08-19T20:10:28.513Z,25.50
2023-08-19T20:12:57.743Z,25.40
2023-08-19T20:15:29.829Z,25.30
2023-08-19T20:17:59.158Z,25.20
2023-08-19T20:20:27.960Z,25.10
2023-08-19T20:22:56.728Z,25.00
2023-08-19T20:25:26.773Z,24.90
2023-08-19T20:27:55.329Z,24.80
2023-08-19T20:30:24.713Z,24.70
2023-08-19T20:32:53.375Z,24.70
2023-08-19T20:35:21.954Z,24.60
2023-08-19T20:37:50.716Z,24.60
2023-08-19T20:40:19.611Z,24.50
2023-08-19T20:42:49.604Z,24.50
2023-08-19T20:45:18.183Z,24.50
2023-08-19T20:47:46.911Z,24.50
2023-08-19T20:50:15.591Z,24.50
2023-08-19T20:52:44.346Z,24.50
2023-08-19T20:55:13.508Z,24.50
2023-08-19T20:57:41.997Z,24.40
2023-08-19T21:00:13.245Z,24.40
2023-08-19T21:02:42.089Z,24.40
2023-08-19T21:05:11.259Z,24.50
2023-08-19T21:07:40.003Z,24.40
2023-08-19T21:10:10.066Z,24.40
2023-08-19T21:12:38.648Z,24.40
2023-08-19T21:15:08.288Z,24.50
2023-08-19T21:17:38.518Z,24.40
2023-08-19T21:20:08.832Z,24.40
2023-08-19T21:22:37.387Z,24.30
2023-08-19T21:25:06.965Z,24.30
2023-08-19T21:27:35.862Z,24.20
2023-08-19T21:30:04.933Z,24.20
2023-08-19T21:32:34.040Z,24.10
2023-08-19T21:35:04.038Z,24.00
2023-08-19T21:37:33.121Z,23.90
2023-08-19T21:40:01.938Z,23.90
2023-08-19T21:42:30.919Z,23.80
2023-08-19T21:44:59.466Z,23.80
2023-08-19T21:47:28.119Z,23.80
2023-08-19T21:49:56.869Z,23.80
2023-08-19T21:52:34.964Z,23.80
2023-08-19T21:55:03.633Z,23.70
2023-08-19T21:57:33.604Z,23.70
2023-08-19T22:00:02.464Z,23.70
2023-08-19T22:02:35.329Z,23.60
2023-08-19T22:05:04.037Z,23.60
2023-08-19T22:07:34.535Z,23.60
2023-08-19T22:10:03.329Z,23.60
2023-08-19T22:12:32.998Z,23.50
2023-08-19T22:15:01.591Z,23.50
2023-08-19T22:17:30.890Z,23.40
2023-08-19T22:19:59.536Z,23.30
2023-08-19T22:22:28.092Z,23.30
2023-08-19T22:24:58.145Z,23.20
2023-08-19T22:27:26.729Z,23.10
2023-08-19T22:29:55.381Z,23.10
2023-08-19T22:32:24.002Z,23.00
2023-08-19T22:34:52.874Z,22.90
2023-08-19T22:37:21.516Z,22.80
2023-08-19T22:39:50.261Z,22.80
2023-08-19T22:42:20.373Z,22.80
2023-08-19T22:44:49.114Z,22.80
2023-08-19T22:47:17.918Z,22.80
2023-08-19T22:49:46.656Z,22.80
2023-08-19T22:52:15.346Z,22.70
2023-08-19T22:54:44.223Z,22.70
2023-08-19T22:57:13.123Z,22.70
2023-08-19T22:59:43.078Z,22.70
2023-08-19T23:02:11.883Z,22.70
2023-08-19T23:04:40.552Z,22.60
2023-08-19T23:07:09.224Z,22.60
2023-08-19T23:09:37.787Z,22.70
2023-08-19T23:12:09.255Z,22.70
2023-08-19T23:14:38.165Z,22.70
2023-08-19T23:17:08.324Z,22.70
2023-08-19T23:19:36.871Z,22.60
2023-08-19T23:22:06.020Z,22.60
2023-08-19T23:24:34.569Z,22.60
2023-08-19T23:27:03.366Z,22.50
2023-08-19T23:29:31.928Z,22.50
2023-08-19T23:32:00.632Z,22.50
2023-08-19T23:34:30.627Z,22.40
2023-08-19T23:37:00.011Z,22.40
2023-08-19T23:39:28.718Z,22.40
2023-08-19T23:41:57.311Z,22.30
2023-08-19T23:44:25.956Z,22.30
2023-08-19T23:46:55.008Z,22.30
2023-08-19T23:49:24.078Z,22.30
2023-08-19T23:51:59.379Z,22.30
2023-08-19T23:54:28.471Z,22.30
2023-08-19T23:56:57.561Z,22.30
2023-08-19T23:59:26.726Z,22.30
